sensor_id;sensor_type;location;lat;lon;timestamp;temperature;humidity
997;DHT22;487;50.126;8.698;2023-11-19T00:00:22;8.70;99.90
997;DHT22;487;50.126;8.698;2023-11-19T00:02:51;8.60;99.90
997;DHT22;487;50.126;8.698;2023-11-19T00:05:19;8.60;99.90
997;DHT22;487;50.126;8.698;2023-11-19T00:07:47;8.60;99.90
997;DHT22;487;50.126;8.698;2023-11-19T00:10:17;8.60;99.90
997;DHT22;487;50.126;8.698;2023-11-19T00:12:47;8.60;99.90
997;DHT22;487;50.126;8.698;2023-11-19T00:15:17;8.60;99.90
997;DHT22;487;50.126;8.698;2023-11-19T00:17:47;8.70;99.90
997;DHT22;487;50.126;8.698;2023-11-19T00:20:18;8.70;99.90
997;DHT22;487;50.126;8.698;2023-11-19T00:22:48;8.70;99.90
997;DHT22;487;50.126;8.698;2023-11-19T00:25:19;8.70;99.90
997;DHT22;487;50.126;8.698;2023-11-19T00:27:48;8.70;99.90
997;DHT22;487;50.126;8.698;2023-11-19T00:30:17;8.70;99.90
997;DHT22;487;50.126;8.698;2023-11-19T00:32:45;8.60;99.90
997;DHT22;487;50.126;8.698;2023-11-19T00:35:13;8.70;99.90
997;DHT22;487;50.126;8.698;2023-11-19T00:37:43;8.70;99.90
997;DHT22;487;50.126;8.698;2023-11-19T00:40:12;8.70;99.90
997;DHT22;487;50.126;8.698;2023-11-19T00:42:43;8.70;99.90
997;DHT22;487;50.126;8.698;2023-11-19T00:45:11;8.80;99.90
997;DHT22;487;50.126;8.698;2023-11-19T00:47:40;8.80;99.90
997;DHT22;487;50.126;8.698;2023-11-19T00:50:08;8.80;99.90
997;DHT22;487;50.126;8.698;2023-11-19T00:52:37;8.90;99.90
997;DHT22;487;50.126;8.698;2023-11-19T00:55:07;8.80;99.90
997;DHT22;487;50.126;8.698;2023-11-19T00:57:35;8.80;99.90
997;DHT22;487;50.126;8.698;2023-11-19T01:00:04;8.80;99.90
997;DHT22;487;50.126;8.698;2023-11-19T05:01:24;10.30;99.90
997;DHT22;487;50.126;8.698;2023-11-19T05:03:52;10.20;99.90
997;DHT22;487;50.126;8.698;2023-11-19T05:06:20;10.20;99.90
997;DHT22;487;50.126;8.698;2023-11-19T05:08:48;10.20;99.90
997;DHT22;487;50.126;8.698;2023-11-19T05:11:16;10.20;1.00
997;DHT22;487;50.126;8.698;2023-11-19T05:13:46;10.20;1.00
997;DHT22;487;50.126;8.698;2023-11-19T05:16:14;10.10;1.00
997;DHT22;487;50.126;8.698;2023-11-19T05:18:43;10.10;1.00
997;DHT22;487;50.126;8.698;2023-11-19T05:21:11;10.20;1.00
997;DHT22;487;50.126;8.698;2023-11-19T05:23:40;10.20;1.00
997;DHT22;487;50.126;8.698;2023-11-19T05:26:08;10.20;1.00
997;DHT22;487;50.126;8.698;2023-11-19T05:28:38;10.20;1.00
997;DHT22;487;50.126;8.698;2023-11-19T05:31:06;10.30;1.00
997;DHT22;487;50.126;8.698;2023-11-19T05:33:34;10.30;1.00
997;DHT22;487;50.126;8.698;2023-11-19T05:36:05;10.30;1.00
997;DHT22;487;50.126;8.698;2023-11-19T05:38:34;10.30;1.00
997;DHT22;487;50.126;8.698;2023-11-19T05:41:03;10.30;1.00
997;DHT22;487;50.126;8.698;2023-11-19T05:43:31;10.40;1.00
997;DHT22;487;50.126;8.698;2023-11-19T05:45:59;10.40;1.00
997;DHT22;487;50.126;8.698;2023-11-19T05:48:28;10.40;1.00
997;DHT22;487;50.126;8.698;2023-11-19T05:50:55;10.40;1.00
997;DHT22;487;50.126;8.698;2023-11-19T05:53:25;10.40;1.00
997;DHT22;487;50.126;8.698;2023-11-19T05:55:54;10.40;1.00
997;DHT22;487;50.126;8.698;2023-11-19T05:58:24;10.40;1.00
997;DHT22;487;50.126;8.698;2023-11-19T06:00:55;10.40;1.00
997;DHT22;487;50.126;8.698;2023-11-19T06:05:52;10.40;1.00
997;DHT22;487;50.126;8.698;2023-11-19T06:08:21;10.40;1.00
997;DHT22;487;50.126;8.698;2023-11-19T06:10:50;10.40;1.00
997;DHT22;487;50.126;8.698;2023-11-19T06:13:18;10.50;1.00
997;DHT22;487;50.126;8.698;2023-11-19T06:15:49;10.50;1.00
997;DHT22;487;50.126;8.698;2023-11-19T06:18:18;10.50;1.00
997;DHT22;487;50.126;8.698;2023-11-19T06:20:47;10.50;1.00
997;DHT22;487;50.126;8.698;2023-11-19T06:23:16;10.50;1.00
997;DHT22;487;50.126;8.698;2023-11-19T06:25:44;10.60;1.00
997;DHT22;487;50.126;8.698;2023-11-19T06:28:13;10.60;1.00
997;DHT22;487;50.126;8.698;2023-11-19T06:30:41;10.70;1.00
997;DHT22;487;50.126;8.698;2023-11-19T06:33:13;10.70;1.00
997;DHT22;487;50.126;8.698;2023-11-19T06:38:10;10.70;1.00
997;DHT22;487;50.126;8.698;2023-11-19T06:40:38;10.70;1.00
997;DHT22;487;50.126;8.698;2023-11-19T06:43:07;10.80;1.00
997;DHT22;487;50.126;8.698;2023-11-19T06:45:37;10.80;1.00
997;DHT22;487;50.126;8.698;2023-11-19T06:48:05;10.80;1.00
997;DHT22;487;50.126;8.698;2023-11-19T06:50:34;10.90;1.00
997;DHT22;487;50.126;8.698;2023-11-19T06:55:31;10.90;1.00
997;DHT22;487;50.126;8.698;2023-11-19T07:00:29;10.90;1.00
997;DHT22;487;50.126;8.698;2023-11-19T07:03:00;10.90;1.00
997;DHT22;487;50.126;8.698;2023-11-19T07:05:28;11.00;1.00
997;DHT22;487;50.126;8.698;2023-11-19T07:07:56;10.90;1.00
997;DHT22;487;50.126;8.698;2023-11-19T07:10:24;11.00;1.00
997;DHT22;487;50.126;8.698;2023-11-19T07:12:52;11.00;1.00
997;DHT22;487;50.126;8.698;2023-11-19T07:15:20;11.10;1.00
997;DHT22;487;50.126;8.698;2023-11-19T07:17:48;11.10;1.00
997;DHT22;487;50.126;8.698;2023-11-19T07:20:29;11.10;1.00
997;DHT22;487;50.126;8.698;2023-11-19T07:25:28;11.10;1.00
997;DHT22;487;50.126;8.698;2023-11-19T07:27:55;11.10;1.00
997;DHT22;487;50.126;8.698;2023-11-19T07:30:23;11.10;1.00
997;DHT22;487;50.126;8.698;2023-11-19T07:32:51;11.20;1.00
997;DHT22;487;50.126;8.698;2023-11-19T07:35:19;11.20;1.00
997;DHT22;487;50.126;8.698;2023-11-19T07:37:48;11.20;1.00
997;DHT22;487;50.126;8.698;2023-11-19T07:40:17;11.20;1.00
997;DHT22;487;50.126;8.698;2023-11-19T07:42:45;11.20;1.00
997;DHT22;487;50.126;8.698;2023-11-19T07:45:13;11.20;1.00
997;DHT22;487;50.126;8.698;2023-11-19T07:47:41;11.20;1.00
997;DHT22;487;50.126;8.698;2023-11-19T07:50:11;11.20;1.00
997;DHT22;487;50.126;8.698;2023-11-19T07:52:40;11.30;1.00
997;DHT22;487;50.126;8.698;2023-11-19T07:55:10;11.30;1.00
997;DHT22;487;50.126;8.698;2023-11-19T07:57:38;11.30;1.00
997;DHT22;487;50.126;8.698;2023-11-19T08:00:07;11.30;1.00
997;DHT22;487;50.126;8.698;2023-11-19T08:02:39;11.30;1.00
997;DHT22;487;50.126;8.698;2023-11-19T08:05:07;11.30;1.00
997;DHT22;487;50.126;8.698;2023-11-19T08:07:35;11.30;1.00
997;DHT22;487;50.126;8.698;2023-11-19T08:10:04;11.40;1.00
997;DHT22;487;50.126;8.698;2023-11-19T08:12:37;11.40;1.00
997;DHT22;487;50.126;8.698;2023-11-19T08:15:06;11.40;1.00
997;DHT22;487;50.126;8.698;2023-11-19T08:17:34;11.50;1.00
997;DHT22;487;50.126;8.698;2023-11-19T08:20:04;11.50;1.00
997;DHT22;487;50.126;8.698;2023-11-19T08:25:03;11.60;1.00
997;DHT22;487;50.126;8.698;2023-11-19T08:32:29;11.70;1.00
997;DHT22;487;50.126;8.698;2023-11-19T08:39:54;11.80;1.00
997;DHT22;487;50.126;8.698;2023-11-19T08:42:22;11.70;1.00
997;DHT22;487;50.126;8.698;2023-11-19T08:44:50;11.70;1.00
997;DHT22;487;50.126;8.698;2023-11-19T08:47:22;11.70;1.00
997;DHT22;487;50.126;8.698;2023-11-19T08:49:51;11.70;1.00
997;DHT22;487;50.126;8.698;2023-11-19T08:52:23;11.80;1.00
997;DHT22;487;50.126;8.698;2023-11-19T08:54:50;11.80;1.00
997;DHT22;487;50.126;8.698;2023-11-19T08:57:18;11.80;1.00
997;DHT22;487;50.126;8.698;2023-11-19T08:59:47;11.90;1.00
997;DHT22;487;50.126;8.698;2023-11-19T09:02:15;11.90;1.00
997;DHT22;487;50.126;8.698;2023-11-19T09:04:44;11.90;1.00
997;DHT22;487;50.126;8.698;2023-11-19T09:09:40;12.00;1.00
997;DHT22;487;50.126;8.698;2023-11-19T09:14:36;12.00;1.00
997;DHT22;487;50.126;8.698;2023-11-19T09:17:04;12.00;1.00
997;DHT22;487;50.126;8.698;2023-11-19T09:19:32;12.00;1.00
997;DHT22;487;50.126;8.698;2023-11-19T09:22:04;12.00;1.00
997;DHT22;487;50.126;8.698;2023-11-19T09:24:32;12.10;1.00
997;DHT22;487;50.126;8.698;2023-11-19T09:26:59;12.10;1.00
997;DHT22;487;50.126;8.698;2023-11-19T09:34:24;12.20;1.00
997;DHT22;487;50.126;8.698;2023-11-19T09:36:52;12.30;1.00
997;DHT22;487;50.126;8.698;2023-11-19T09:39:21;12.40;1.00
997;DHT22;487;50.126;8.698;2023-11-19T09:41:49;12.40;1.00
997;DHT22;487;50.126;8.698;2023-11-19T09:44:17;12.40;1.00
997;DHT22;487;50.126;8.698;2023-11-19T09:46:46;12.40;1.00
997;DHT22;487;50.126;8.698;2023-11-19T09:49:17;12.50;1.00
997;DHT22;487;50.126;8.698;2023-11-19T09:54:32;12.60;99.90
997;DHT22;487;50.126;8.698;2023-11-19T09:56:59;12.60;99.90
997;DHT22;487;50.126;8.698;2023-11-19T09:59:31;12.60;99.90
997;DHT22;487;50.126;8.698;2023-11-19T10:01:59;12.70;99.90
997;DHT22;487;50.126;8.698;2023-11-19T10:04:29;12.80;89.80
997;DHT22;487;50.126;8.698;2023-11-19T10:06:58;12.80;1.10
997;DHT22;487;50.126;8.698;2023-11-19T10:09:26;12.90;1.00
997;DHT22;487;50.126;8.698;2023-11-19T10:11:55;13.00;1.00
997;DHT22;487;50.126;8.698;2023-11-19T10:14:23;13.00;1.00
997;DHT22;487;50.126;8.698;2023-11-19T10:16:51;13.10;1.00
997;DHT22;487;50.126;8.698;2023-11-19T10:19:19;13.20;1.00
997;DHT22;487;50.126;8.698;2023-11-19T10:21:48;13.20;1.00
997;DHT22;487;50.126;8.698;2023-11-19T10:24:16;13.30;1.00
997;DHT22;487;50.126;8.698;2023-11-19T10:26:46;13.30;1.00
997;DHT22;487;50.126;8.698;2023-11-19T10:29:16;13.40;1.00
997;DHT22;487;50.126;8.698;2023-11-19T10:31:55;13.40;1.00
997;DHT22;487;50.126;8.698;2023-11-19T10:34:43;13.60;1.00
997;DHT22;487;50.126;8.698;2023-11-19T10:37:27;13.60;99.90
997;DHT22;487;50.126;8.698;2023-11-19T10:39:55;13.70;99.90
997;DHT22;487;50.126;8.698;2023-11-19T10:42:23;13.80;99.90
997;DHT22;487;50.126;8.698;2023-11-19T10:44:53;13.90;99.90
997;DHT22;487;50.126;8.698;2023-11-19T10:47:22;13.90;99.90
997;DHT22;487;50.126;8.698;2023-11-19T10:49:53;14.00;99.90
997;DHT22;487;50.126;8.698;2023-11-19T10:52:22;14.00;99.90
997;DHT22;487;50.126;8.698;2023-11-19T10:54:51;14.10;99.90
997;DHT22;487;50.126;8.698;2023-11-19T10:57:20;14.20;99.90
997;DHT22;487;50.126;8.698;2023-11-19T10:59:50;14.30;99.90
997;DHT22;487;50.126;8.698;2023-11-19T11:02:24;14.40;99.90
997;DHT22;487;50.126;8.698;2023-11-19T11:04:54;14.50;99.90
997;DHT22;487;50.126;8.698;2023-11-19T11:07:23;14.60;99.90
997;DHT22;487;50.126;8.698;2023-11-19T11:10:06;14.60;99.90
997;DHT22;487;50.126;8.698;2023-11-19T11:12:36;14.60;99.90
997;DHT22;487;50.126;8.698;2023-11-19T11:15:07;14.60;99.90
997;DHT22;487;50.126;8.698;2023-11-19T11:17:39;14.60;99.90
997;DHT22;487;50.126;8.698;2023-11-19T11:20:10;14.70;99.90
997;DHT22;487;50.126;8.698;2023-11-19T11:22:45;14.80;99.90
997;DHT22;487;50.126;8.698;2023-11-19T11:25:31;14.80;99.90
997;DHT22;487;50.126;8.698;2023-11-19T11:28:18;14.80;99.90
997;DHT22;487;50.126;8.698;2023-11-19T11:30:58;14.80;99.90
997;DHT22;487;50.126;8.698;2023-11-19T11:33:39;14.90;99.90
997;DHT22;487;50.126;8.698;2023-11-19T11:36:15;14.90;99.90
997;DHT22;487;50.126;8.698;2023-11-19T11:38:48;14.90;99.90
997;DHT22;487;50.126;8.698;2023-11-19T11:41:17;14.90;99.90
997;DHT22;487;50.126;8.698;2023-11-19T11:43:48;14.90;99.90
997;DHT22;487;50.126;8.698;2023-11-19T11:46:53;14.80;99.90
997;DHT22;487;50.126;8.698;2023-11-19T11:49:32;14.60;99.90
997;DHT22;487;50.126;8.698;2023-11-19T11:52:02;14.70;99.90
997;DHT22;487;50.126;8.698;2023-11-19T11:54:34;14.70;99.90
997;DHT22;487;50.126;8.698;2023-11-19T11:57:12;14.70;99.90
997;DHT22;487;50.126;8.698;2023-11-19T11:59:48;14.60;99.90
997;DHT22;487;50.126;8.698;2023-11-19T12:02:17;14.60;99.90
997;DHT22;487;50.126;8.698;2023-11-19T12:04:51;14.70;99.90
997;DHT22;487;50.126;8.698;2023-11-19T12:07:22;14.60;99.90
997;DHT22;487;50.126;8.698;2023-11-19T12:09:52;14.60;99.90
997;DHT22;487;50.126;8.698;2023-11-19T12:12:23;14.60;99.90
997;DHT22;487;50.126;8.698;2023-11-19T12:15:06;14.70;99.90
997;DHT22;487;50.126;8.698;2023-11-19T12:17:47;14.60;99.90
997;DHT22;487;50.126;8.698;2023-11-19T12:20:20;14.60;99.90
997;DHT22;487;50.126;8.698;2023-11-19T12:22:52;14.70;99.90
997;DHT22;487;50.126;8.698;2023-11-19T12:25:21;14.70;99.90
997;DHT22;487;50.126;8.698;2023-11-19T12:27:50;14.80;99.90
997;DHT22;487;50.126;8.698;2023-11-19T12:30:21;15.00;99.90
997;DHT22;487;50.126;8.698;2023-11-19T12:32:50;14.90;99.90
997;DHT22;487;50.126;8.698;2023-11-19T12:35:22;15.00;99.90
997;DHT22;487;50.126;8.698;2023-11-19T12:37:51;15.10;99.90
997;DHT22;487;50.126;8.698;2023-11-19T12:40:21;15.30;99.90
997;DHT22;487;50.126;8.698;2023-11-19T12:42:50;15.20;99.90
997;DHT22;487;50.126;8.698;2023-11-19T12:45:19;15.40;99.90
997;DHT22;487;50.126;8.698;2023-11-19T12:47:48;15.50;99.90
997;DHT22;487;50.126;8.698;2023-11-19T12:50:17;15.40;99.90
997;DHT22;487;50.126;8.698;2023-11-19T12:52:56;15.40;99.90
997;DHT22;487;50.126;8.698;2023-11-19T12:55:26;15.50;99.90
997;DHT22;487;50.126;8.698;2023-11-19T12:57:56;15.50;99.90
997;DHT22;487;50.126;8.698;2023-11-19T13:00:26;15.50;99.90
997;DHT22;487;50.126;8.698;2023-11-19T13:02:55;15.40;99.90
997;DHT22;487;50.126;8.698;2023-11-19T13:05:25;15.40;99.90
997;DHT22;487;50.126;8.698;2023-11-19T13:08:03;15.50;99.90
997;DHT22;487;50.126;8.698;2023-11-19T13:10:31;15.60;99.90
997;DHT22;487;50.126;8.698;2023-11-19T13:13:01;15.70;99.90
997;DHT22;487;50.126;8.698;2023-11-19T13:15:29;15.80;99.90
997;DHT22;487;50.126;8.698;2023-11-19T13:17:57;15.90;99.90
997;DHT22;487;50.126;8.698;2023-11-19T13:20:25;15.80;99.90
997;DHT22;487;50.126;8.698;2023-11-19T13:22:57;15.80;99.90
997;DHT22;487;50.126;8.698;2023-11-19T13:25:26;15.80;99.90
997;DHT22;487;50.126;8.698;2023-11-19T13:27:55;15.80;99.90
997;DHT22;487;50.126;8.698;2023-11-19T13:32:53;15.80;99.90
997;DHT22;487;50.126;8.698;2023-11-19T13:35:22;15.60;99.90
997;DHT22;487;50.126;8.698;2023-11-19T13:37:50;15.50;99.90
997;DHT22;487;50.126;8.698;2023-11-19T13:40:19;15.40;99.90
997;DHT22;487;50.126;8.698;2023-11-19T13:42:50;15.30;99.90
997;DHT22;487;50.126;8.698;2023-11-19T13:45:18;15.10;99.90
997;DHT22;487;50.126;8.698;2023-11-19T13:47:47;15.20;99.90
997;DHT22;487;50.126;8.698;2023-11-19T13:50:16;15.30;99.90
997;DHT22;487;50.126;8.698;2023-11-19T13:55:14;15.40;99.90
997;DHT22;487;50.126;8.698;2023-11-19T13:57:42;15.30;99.90
997;DHT22;487;50.126;8.698;2023-11-19T14:00:12;15.20;99.90
997;DHT22;487;50.126;8.698;2023-11-19T14:02:42;15.20;99.90
997;DHT22;487;50.126;8.698;2023-11-19T14:05:11;15.20;99.90
997;DHT22;487;50.126;8.698;2023-11-19T14:07:39;15.20;99.90
997;DHT22;487;50.126;8.698;2023-11-19T14:10:08;15.30;99.90
997;DHT22;487;50.126;8.698;2023-11-19T14:12:37;15.30;99.90
997;DHT22;487;50.126;8.698;2023-11-19T14:15:06;15.30;99.90
997;DHT22;487;50.126;8.698;2023-11-19T14:17:37;15.30;99.90
997;DHT22;487;50.126;8.698;2023-11-19T14:20:06;15.20;99.90
997;DHT22;487;50.126;8.698;2023-11-19T14:22:39;15.20;99.90
997;DHT22;487;50.126;8.698;2023-11-19T14:25:08;15.10;99.90
997;DHT22;487;50.126;8.698;2023-11-19T14:27:37;15.20;99.90
997;DHT22;487;50.126;8.698;2023-11-19T14:30:06;15.10;99.90
997;DHT22;487;50.126;8.698;2023-11-19T14:32:37;15.00;99.90
997;DHT22;487;50.126;8.698;2023-11-19T14:35:06;15.00;99.90
997;DHT22;487;50.126;8.698;2023-11-19T14:40:03;15.00;99.90
997;DHT22;487;50.126;8.698;2023-11-19T14:42:32;14.90;99.90
997;DHT22;487;50.126;8.698;2023-11-19T14:45:00;14.90;99.90
997;DHT22;487;50.126;8.698;2023-11-19T14:47:28;14.80;99.90
997;DHT22;487;50.126;8.698;2023-11-19T14:49:58;14.80;99.90
997;DHT22;487;50.126;8.698;2023-11-19T14:52:26;14.80;99.90
997;DHT22;487;50.126;8.698;2023-11-19T14:54:54;14.80;99.90
997;DHT22;487;50.126;8.698;2023-11-19T14:57:23;14.70;99.90
997;DHT22;487;50.126;8.698;2023-11-19T14:59:51;14.70;99.90
997;DHT22;487;50.126;8.698;2023-11-19T15:02:18;14.80;99.90
997;DHT22;487;50.126;8.698;2023-11-19T15:04:48;14.70;99.90
997;DHT22;487;50.126;8.698;2023-11-19T15:07:17;14.70;99.90
997;DHT22;487;50.126;8.698;2023-11-19T15:09:45;14.70;99.90
997;DHT22;487;50.126;8.698;2023-11-19T15:12:13;14.70;99.90
997;DHT22;487;50.126;8.698;2023-11-19T15:17:10;14.80;99.90
997;DHT22;487;50.126;8.698;2023-11-19T15:19:38;14.80;99.90
997;DHT22;487;50.126;8.698;2023-11-19T15:22:07;14.60;99.90
997;DHT22;487;50.126;8.698;2023-11-19T15:24:39;14.60;99.90
997;DHT22;487;50.126;8.698;2023-11-19T15:27:08;14.60;99.90
997;DHT22;487;50.126;8.698;2023-11-19T15:29:40;17.70;99.90
997;DHT22;487;50.126;8.698;2023-11-19T15:32:08;14.60;99.90
997;DHT22;487;50.126;8.698;2023-11-19T15:34:35;14.50;99.90
997;DHT22;487;50.126;8.698;2023-11-19T15:37:04;14.50;99.90
997;DHT22;487;50.126;8.698;2023-11-19T15:39:32;14.60;99.90
997;DHT22;487;50.126;8.698;2023-11-19T15:42:04;14.60;99.90
997;DHT22;487;50.126;8.698;2023-11-19T15:44:32;14.60;99.90
997;DHT22;487;50.126;8.698;2023-11-19T15:47:00;14.60;99.90
997;DHT22;487;50.126;8.698;2023-11-19T15:49:28;14.60;99.80
997;DHT22;487;50.126;8.698;2023-11-19T15:51:56;14.60;99.90
997;DHT22;487;50.126;8.698;2023-11-19T15:54:24;14.60;99.90
997;DHT22;487;50.126;8.698;2023-11-19T15:59:22;14.50;99.90
997;DHT22;487;50.126;8.698;2023-11-19T16:01:50;14.40;99.90
997;DHT22;487;50.126;8.698;2023-11-19T16:04:18;14.30;99.90
997;DHT22;487;50.126;8.698;2023-11-19T16:06:46;14.40;99.90
997;DHT22;487;50.126;8.698;2023-11-19T16:09:13;14.30;99.90
997;DHT22;487;50.126;8.698;2023-11-19T16:11:45;14.30;99.90
997;DHT22;487;50.126;8.698;2023-11-19T16:14:23;14.30;99.90
997;DHT22;487;50.126;8.698;2023-11-19T16:19:20;14.20;99.90
997;DHT22;487;50.126;8.698;2023-11-19T16:24:16;14.20;99.90
997;DHT22;487;50.126;8.698;2023-11-19T16:26:44;14.10;99.90
997;DHT22;487;50.126;8.698;2023-11-19T16:29:12;14.20;99.90
997;DHT22;487;50.126;8.698;2023-11-19T16:31:42;14.20;99.90
997;DHT22;487;50.126;8.698;2023-11-19T16:34:10;14.10;99.90
997;DHT22;487;50.126;8.698;2023-11-19T16:39:06;14.00;99.90
997;DHT22;487;50.126;8.698;2023-11-19T16:41:38;14.10;99.90
997;DHT22;487;50.126;8.698;2023-11-19T16:44:09;14.10;99.90
997;DHT22;487;50.126;8.698;2023-11-19T16:46:37;14.10;99.90
997;DHT22;487;50.126;8.698;2023-11-19T16:49:07;14.10;99.90
997;DHT22;487;50.126;8.698;2023-11-19T16:51:34;14.10;99.90
997;DHT22;487;50.126;8.698;2023-11-19T16:54:03;14.10;99.90
997;DHT22;487;50.126;8.698;2023-11-19T16:59:00;13.90;99.90
997;DHT22;487;50.126;8.698;2023-11-19T17:01:28;13.90;99.90
997;DHT22;487;50.126;8.698;2023-11-19T17:03:57;13.70;99.90
997;DHT22;487;50.126;8.698;2023-11-19T17:06:27;13.70;99.90
997;DHT22;487;50.126;8.698;2023-11-19T17:08:55;13.70;99.90
997;DHT22;487;50.126;8.698;2023-11-19T17:13:59;13.60;99.90
997;DHT22;487;50.126;8.698;2023-11-19T17:16:27;13.60;99.90
997;DHT22;487;50.126;8.698;2023-11-19T17:18:54;13.60;99.90
997;DHT22;487;50.126;8.698;2023-11-19T17:21:22;13.60;99.90
997;DHT22;487;50.126;8.698;2023-11-19T17:23:53;13.50;99.90
997;DHT22;487;50.126;8.698;2023-11-19T17:26:21;13.50;99.90
997;DHT22;487;50.126;8.698;2023-11-19T17:33:47;13.50;99.90
997;DHT22;487;50.126;8.698;2023-11-19T17:36:15;13.40;99.90
997;DHT22;487;50.126;8.698;2023-11-19T17:38:43;13.40;99.90
997;DHT22;487;50.126;8.698;2023-11-19T17:41:12;13.30;99.90
997;DHT22;487;50.126;8.698;2023-11-19T17:43:40;13.30;99.90
997;DHT22;487;50.126;8.698;2023-11-19T17:46:08;13.30;99.90
997;DHT22;487;50.126;8.698;2023-11-19T17:51:05;13.20;99.90
997;DHT22;487;50.126;8.698;2023-11-19T17:53:33;13.20;99.90
997;DHT22;487;50.126;8.698;2023-11-19T17:56:03;13.10;99.90
997;DHT22;487;50.126;8.698;2023-11-19T18:01:02;13.10;99.90
997;DHT22;487;50.126;8.698;2023-11-19T18:03:30;15.90;99.90
997;DHT22;487;50.126;8.698;2023-11-19T18:05:59;13.10;99.90
997;DHT22;487;50.126;8.698;2023-11-19T18:10:55;13.10;99.90
997;DHT22;487;50.126;8.698;2023-11-19T18:13:23;13.10;99.90
997;DHT22;487;50.126;8.698;2023-11-19T18:18:21;13.10;99.90
997;DHT22;487;50.126;8.698;2023-11-19T18:20:49;13.00;99.90
997;DHT22;487;50.126;8.698;2023-11-19T18:23:17;13.00;99.90
997;DHT22;487;50.126;8.698;2023-11-19T18:25:45;13.00;99.90
997;DHT22;487;50.126;8.698;2023-11-19T18:28:13;13.00;99.90
997;DHT22;487;50.126;8.698;2023-11-19T18:33:13;13.00;99.90
997;DHT22;487;50.126;8.698;2023-11-19T18:35:41;13.00;99.90
997;DHT22;487;50.126;8.698;2023-11-19T18:38:09;12.90;99.90
997;DHT22;487;50.126;8.698;2023-11-19T18:40:37;12.80;99.90
997;DHT22;487;50.126;8.698;2023-11-19T18:43:05;12.80;99.90
997;DHT22;487;50.126;8.698;2023-11-19T18:45:39;12.90;99.90
997;DHT22;487;50.126;8.698;2023-11-19T18:48:07;12.80;99.90
997;DHT22;487;50.126;8.698;2023-11-19T18:50:36;12.80;99.90
997;DHT22;487;50.126;8.698;2023-11-19T18:53:07;12.80;99.90
997;DHT22;487;50.126;8.698;2023-11-19T18:55:35;12.80;99.90
997;DHT22;487;50.126;8.698;2023-11-19T18:58:03;12.80;99.90
997;DHT22;487;50.126;8.698;2023-11-19T19:00:31;12.70;99.90
997;DHT22;487;50.126;8.698;2023-11-19T19:02:59;12.70;99.90
997;DHT22;487;50.126;8.698;2023-11-19T19:05:29;12.60;99.90
997;DHT22;487;50.126;8.698;2023-11-19T19:07:59;12.60;99.90
997;DHT22;487;50.126;8.698;2023-11-19T19:10:28;12.60;99.90
997;DHT22;487;50.126;8.698;2023-11-19T19:12:56;12.60;99.90
997;DHT22;487;50.126;8.698;2023-11-19T19:15:24;12.60;99.90
997;DHT22;487;50.126;8.698;2023-11-19T19:17:54;12.60;99.90
997;DHT22;487;50.126;8.698;2023-11-19T19:20:23;12.60;99.90
997;DHT22;487;50.126;8.698;2023-11-19T19:22:51;12.60;99.90
997;DHT22;487;50.126;8.698;2023-11-19T19:25:20;12.70;99.90
997;DHT22;487;50.126;8.698;2023-11-19T19:27:50;12.70;99.90
997;DHT22;487;50.126;8.698;2023-11-19T19:30:39;12.70;99.90
997;DHT22;487;50.126;8.698;2023-11-19T19:33:07;12.70;99.90
997;DHT22;487;50.126;8.698;2023-11-19T19:35:35;12.80;99.90
997;DHT22;487;50.126;8.698;2023-11-19T19:38:03;12.80;99.90
997;DHT22;487;50.126;8.698;2023-11-19T19:40:32;12.80;99.90
997;DHT22;487;50.126;8.698;2023-11-19T19:43:00;12.90;99.90
997;DHT22;487;50.126;8.698;2023-11-19T19:45:31;12.80;99.90
997;DHT22;487;50.126;8.698;2023-11-19T19:48:02;12.90;99.90
997;DHT22;487;50.126;8.698;2023-11-19T19:50:30;12.80;99.90
997;DHT22;487;50.126;8.698;2023-11-19T19:52:58;16.50;99.90
997;DHT22;487;50.126;8.698;2023-11-19T19:55:26;12.80;99.90
997;DHT22;487;50.126;8.698;2023-11-19T19:57:55;12.80;99.90
997;DHT22;487;50.126;8.698;2023-11-19T20:00:23;12.80;99.90
997;DHT22;487;50.126;8.698;2023-11-19T20:02:51;12.80;99.90
997;DHT22;487;50.126;8.698;2023-11-19T20:05:19;12.80;99.90
997;DHT22;487;50.126;8.698;2023-11-19T20:07:47;12.80;99.90
997;DHT22;487;50.126;8.698;2023-11-19T20:10:17;12.90;99.90
997;DHT22;487;50.126;8.698;2023-11-19T20:15:15;12.90;99.90
997;DHT22;487;50.126;8.698;2023-11-19T20:20:15;12.80;99.90
997;DHT22;487;50.126;8.698;2023-11-19T20:22:43;12.80;99.90
997;DHT22;487;50.126;8.698;2023-11-19T20:25:11;12.80;99.90
997;DHT22;487;50.126;8.698;2023-11-19T20:27:40;12.80;99.90
997;DHT22;487;50.126;8.698;2023-11-19T20:30:09;12.90;99.90
997;DHT22;487;50.126;8.698;2023-11-19T20:32:39;12.90;99.90
997;DHT22;487;50.126;8.698;2023-11-19T20:35:08;12.90;99.90
997;DHT22;487;50.126;8.698;2023-11-19T20:37:36;12.90;99.90
997;DHT22;487;50.126;8.698;2023-11-19T20:40:05;12.90;99.90
997;DHT22;487;50.126;8.698;2023-11-19T20:42:34;12.90;99.90
997;DHT22;487;50.126;8.698;2023-11-19T20:45:04;12.90;99.90
997;DHT22;487;50.126;8.698;2023-11-19T20:47:32;12.90;99.90
997;DHT22;487;50.126;8.698;2023-11-19T20:50:01;12.90;99.90
997;DHT22;487;50.126;8.698;2023-11-19T20:52:31;13.00;99.90
997;DHT22;487;50.126;8.698;2023-11-19T20:57:29;13.00;99.90
997;DHT22;487;50.126;8.698;2023-11-19T20:59:58;12.90;99.90
997;DHT22;487;50.126;8.698;2023-11-19T21:02:26;12.80;99.90
997;DHT22;487;50.126;8.698;2023-11-19T21:04:53;12.80;99.90
997;DHT22;487;50.126;8.698;2023-11-19T21:07:23;12.90;99.90
997;DHT22;487;50.126;8.698;2023-11-19T21:09:50;12.90;99.90
997;DHT22;487;50.126;8.698;2023-11-19T21:12:19;12.80;99.90
997;DHT22;487;50.126;8.698;2023-11-19T21:14:47;12.90;99.90
997;DHT22;487;50.126;8.698;2023-11-19T21:17:14;12.90;99.90
997;DHT22;487;50.126;8.698;2023-11-19T21:19:46;12.80;99.90
997;DHT22;487;50.126;8.698;2023-11-19T21:22:14;12.80;99.90
997;DHT22;487;50.126;8.698;2023-11-19T21:24:45;12.80;99.90
997;DHT22;487;50.126;8.698;2023-11-19T21:27:13;12.90;99.90
997;DHT22;487;50.126;8.698;2023-11-19T21:29:41;12.90;99.90
997;DHT22;487;50.126;8.698;2023-11-19T21:32:09;12.90;99.90
997;DHT22;487;50.126;8.698;2023-11-19T21:34:37;12.90;99.90
997;DHT22;487;50.126;8.698;2023-11-19T21:37:07;12.90;99.90
997;DHT22;487;50.126;8.698;2023-11-19T21:39:35;12.90;99.90
997;DHT22;487;50.126;8.698;2023-11-19T21:42:05;12.90;99.90
997;DHT22;487;50.126;8.698;2023-11-19T21:44:33;12.90;99.90
997;DHT22;487;50.126;8.698;2023-11-19T21:47:01;12.80;99.90
997;DHT22;487;50.126;8.698;2023-11-19T21:49:29;12.80;99.90
997;DHT22;487;50.126;8.698;2023-11-19T21:51:57;12.80;99.90
997;DHT22;487;50.126;8.698;2023-11-19T21:54:25;12.90;99.90
997;DHT22;487;50.126;8.698;2023-11-19T21:56:53;12.90;99.90
997;DHT22;487;50.126;8.698;2023-11-19T21:59:22;12.90;99.90
997;DHT22;487;50.126;8.698;2023-11-19T22:01:50;12.90;99.90
997;DHT22;487;50.126;8.698;2023-11-19T22:04:18;12.90;99.90
997;DHT22;487;50.126;8.698;2023-11-19T22:06:46;12.90;99.90
997;DHT22;487;50.126;8.698;2023-11-19T22:09:13;12.90;99.90
997;DHT22;487;50.126;8.698;2023-11-19T22:11:42;12.90;99.90
997;DHT22;487;50.126;8.698;2023-11-19T22:14:10;12.90;99.90
997;DHT22;487;50.126;8.698;2023-11-19T22:16:39;13.00;99.90
997;DHT22;487;50.126;8.698;2023-11-19T22:19:07;13.00;99.90